Time;durP1;ratioP1;P1;durP2;ratioP2;P2;SDS_P1;SDS_P2;PMS_P1;PMS_P2;Temp;Humidity;BMP_temperature;BMP_pressure;BME280_temperature;BME280_humidity;BME280_pressure;Samples;Min_cycle;Max_cycle;Signal;HPM_P1;HPM_P2
2022/06/20 00:02:18;;;;;;;1.30;0.87;;;;;;;;;;5035958;28;20456;-79
2022/06/20 00:04:46;;;;;;;2.63;1.30;;;;;;;;;;5041365;28;20693;-79
2022/06/20 00:07:13;;;;;;;1.60;0.90;;;;;;;;;;5042772;28;20461;-82
2022/06/20 00:09:40;;;;;;;1.30;1.10;;;;;;;;;;5045417;28;20464;-80
2022/06/20 00:12:09;;;;;;;1.60;1.00;;;;;;;;;;5050478;28;20944;-79
2022/06/20 00:14:36;;;;;;;1.43;0.90;;;;;;;;;;5044844;28;20480;-78
2022/06/20 00:17:06;;;;;;;1.50;0.90;;;;;;;;;;5041727;28;20465;-81
2022/06/20 00:19:37;;;;;;;1.93;0.93;;;;;;;;;;5037000;28;20229;-84
2022/06/20 00:22:05;;;;;;;1.40;0.97;;;;;;;;;;5045206;28;20484;-83
2022/06/20 00:24:32;;;;;;;2.13;1.47;;;;;;;;;;5048638;28;20462;-81
2022/06/20 00:26:59;;;;;;;2.37;1.83;;;;;;;;;;5048432;28;20453;-84
2022/06/20 00:29:28;;;;;;;1.60;0.90;;;;;;;;;;5032270;28;20468;-83
2022/06/20 00:31:55;;;;;;;1.97;1.30;;;;;;;;;;5041038;28;20201;-82
2022/06/20 00:34:22;;;;;;;2.03;1.00;;;;;;;;;;5043239;28;20485;-88
2022/06/20 00:36:51;;;;;;;5.70;1.20;;;;;;;;;;5045073;28;20469;-85
2022/06/20 00:39:19;;;;;;;1.58;1.00;;;;;;;;;;5043633;28;20206;-84
2022/06/20 00:41:46;;;;;;;1.65;0.80;;;;;;;;;;5038536;28;20223;-83
2022/06/20 00:44:15;;;;;;;1.75;1.10;;;;;;;;;;5043895;28;20674;-82
2022/06/20 00:46:43;;;;;;;2.60;1.00;;;;;;;;;;5043318;28;20205;-84
2022/06/20 00:49:13;;;;;;;2.23;1.00;;;;;;;;;;5045573;28;20887;-85
2022/06/20 00:51:43;;;;;;;1.20;0.90;;;;;;;;;;5041048;28;20466;-83
2022/06/20 00:54:15;;;;;;;8.60;2.08;;;;;;;;;;5053049;28;20633;-83
2022/06/20 00:56:50;;;;;;;1.80;1.10;;;;;;;;;;5048534;28;20263;-84
2022/06/20 00:59:18;;;;;;;4.03;1.30;;;;;;;;;;5045466;28;20201;-84
2022/06/20 01:01:45;;;;;;;1.30;1.00;;;;;;;;;;5051622;28;20987;-83
2022/06/20 01:04:21;;;;;;;2.65;1.00;;;;;;;;;;5053825;28;20205;-83
2022/06/20 01:06:50;;;;;;;2.75;2.08;;;;;;;;;;5058788;28;20232;-84
2022/06/20 01:09:20;;;;;;;1.20;0.90;;;;;;;;;;5051819;28;20198;-84
2022/06/20 01:11:48;;;;;;;1.92;1.10;;;;;;;;;;5054119;28;20472;-84
2022/06/20 01:14:21;;;;;;;4.20;1.20;;;;;;;;;;5057583;28;20708;-83
2022/06/20 01:16:48;;;;;;;1.70;0.90;;;;;;;;;;5041114;28;20212;-83
2022/06/20 01:19:18;;;;;;;2.28;1.15;;;;;;;;;;5047675;28;20197;-87
2022/06/20 01:21:45;;;;;;;2.97;1.08;;;;;;;;;;5048487;28;20237;-84
2022/06/20 01:24:19;;;;;;;1.45;0.80;;;;;;;;;;5057691;28;20193;-84
2022/06/20 01:26:53;;;;;;;2.03;1.08;;;;;;;;;;5042248;28;20193;-84
2022/06/20 01:29:21;;;;;;;1.65;1.15;;;;;;;;;;5045886;28;20283;-84
2022/06/20 01:31:50;;;;;;;2.03;1.08;;;;;;;;;;5042266;28;20206;-84
2022/06/20 01:34:18;;;;;;;2.35;1.10;;;;;;;;;;5055592;28;20232;-86
2022/06/20 01:39:32;;;;;;;1.60;1.02;;;;;;;;;;5049879;28;20198;-88
2022/06/20 01:44:46;;;;;;;1.63;0.88;;;;;;;;;;5052525;28;20200;-86
2022/06/20 01:47:14;;;;;;;2.33;1.38;;;;;;;;;;5053102;28;20201;-87
2022/06/20 01:49:43;;;;;;;1.88;1.17;;;;;;;;;;5049539;28;20234;-87
2022/06/20 01:52:14;;;;;;;2.13;0.90;;;;;;;;;;5056627;28;20564;-86
2022/06/20 01:54:42;;;;;;;3.65;1.20;;;;;;;;;;5050711;28;20226;-88
2022/06/20 01:57:11;;;;;;;2.17;0.90;;;;;;;;;;5037414;28;20210;-87
2022/06/20 01:59:40;;;;;;;2.85;1.00;;;;;;;;;;5050596;28;20202;-87
2022/06/20 02:02:09;;;;;;;1.13;0.85;;;;;;;;;;5042481;28;20196;-89
2022/06/20 02:04:37;;;;;;;1.65;1.17;;;;;;;;;;5052629;28;20202;-89
2022/06/20 02:07:06;;;;;;;1.55;1.00;;;;;;;;;;5043200;28;20291;-87
2022/06/20 02:09:33;;;;;;;3.05;1.15;;;;;;;;;;5043406;28;20216;-86
2022/06/20 02:12:01;;;;;;;1.73;0.93;;;;;;;;;;5053760;28;20202;-87
2022/06/20 02:14:32;;;;;;;1.85;1.10;;;;;;;;;;5047186;28;20308;-87
2022/06/20 02:17:01;;;;;;;1.25;0.93;;;;;;;;;;5040845;28;20200;-87
2022/06/20 02:19:32;;;;;;;4.00;1.30;;;;;;;;;;5050758;28;20200;-87
2022/06/20 02:22:01;;;;;;;1.48;1.10;;;;;;;;;;5047613;28;20247;-87
2022/06/20 02:24:30;;;;;;;2.50;1.00;;;;;;;;;;5049941;28;20272;-87
2022/06/20 02:27:01;;;;;;;2.47;1.55;;;;;;;;;;5034211;28;20661;-88
2022/06/20 02:29:29;;;;;;;2.28;0.95;;;;;;;;;;5044981;28;20208;-86
2022/06/20 02:31:57;;;;;;;2.88;1.20;;;;;;;;;;5041464;28;20690;-85
2022/06/20 02:34:30;;;;;;;2.65;0.88;;;;;;;;;;5045433;28;20706;-86
2022/06/20 02:37:02;;;;;;;3.38;1.33;;;;;;;;;;5049401;28;20623;-86
2022/06/20 02:39:30;;;;;;;3.35;1.10;;;;;;;;;;5041847;28;20235;-86
2022/06/20 02:41:59;;;;;;;2.00;1.17;;;;;;;;;;5050922;28;20681;-86
2022/06/20 02:44:27;;;;;;;1.13;0.90;;;;;;;;;;5050481;28;20675;-86
2022/06/20 02:46:55;;;;;;;1.88;1.00;;;;;;;;;;5047163;28;20209;-86
2022/06/20 02:49:24;;;;;;;1.58;0.80;;;;;;;;;;5047972;28;20198;-87
2022/06/20 02:51:53;;;;;;;4.70;1.27;;;;;;;;;;5042607;28;20214;-87
2022/06/20 02:54:23;;;;;;;2.97;0.95;;;;;;;;;;5034482;28;20212;-86
2022/06/20 02:56:51;;;;;;;2.35;0.98;;;;;;;;;;5044791;28;20734;-89
2022/06/20 02:59:19;;;;;;;2.00;1.08;;;;;;;;;;5044860;28;20228;-87
2022/06/20 03:01:49;;;;;;;1.80;0.93;;;;;;;;;;5038878;28;20200;-86
2022/06/20 03:04:17;;;;;;;3.25;1.20;;;;;;;;;;5048666;28;20186;-88
2022/06/20 03:06:47;;;;;;;2.42;1.05;;;;;;;;;;5044631;28;20615;-87
2022/06/20 03:09:15;;;;;;;1.20;0.80;;;;;;;;;;5043901;28;20196;-86
2022/06/20 03:11:44;;;;;;;2.85;1.17;;;;;;;;;;5052861;28;20206;-89
2022/06/20 03:14:13;;;;;;;1.73;0.93;;;;;;;;;;5052042;28;20216;-86
2022/06/20 03:16:40;;;;;;;2.00;1.00;;;;;;;;;;5046791;28;20530;-89
2022/06/20 03:19:09;;;;;;;1.40;1.00;;;;;;;;;;5050124;28;20200;-84
2022/06/20 03:21:39;;;;;;;2.15;1.10;;;6.30;99.90;;;;;;5043602;28;20281;-85
2022/06/20 03:24:07;;;;;;;2.30;1.30;;;21.00;99.90;;;;;;5041440;28;20192;-85
2022/06/20 03:26:34;;;;;;;1.50;0.80;;;20.80;99.90;;;;;;5045671;28;20200;-85
2022/06/20 03:29:03;;;;;;;1.52;1.10;;;20.80;99.90;;;;;;5039584;28;20208;-86
2022/06/20 03:31:29;;;;;;;2.40;1.10;;;20.80;99.90;;;;;;5042690;28;20567;-85
2022/06/20 03:33:56;;;;;;;2.20;1.00;;;20.70;99.90;;;;;;5051736;28;20701;-85
2022/06/20 03:36:26;;;;;;;2.15;1.17;;;20.70;99.90;;;;;;5042308;28;20267;-85
2022/06/20 03:38:53;;;;;;;1.98;1.00;;;20.70;99.90;;;;;;5050054;28;20205;-86
2022/06/20 03:41:23;;;;;;;2.13;1.00;;;20.70;99.90;;;;;;5049415;28;20194;-85
2022/06/20 03:43:53;;;;;;;2.30;1.20;;;20.70;99.90;;;;;;5045397;28;20241;-85
2022/06/20 03:46:25;;;;;;;4.15;1.30;;;20.70;99.90;;;;;;5043324;28;20199;-85
2022/06/20 03:48:56;;;;;;;1.65;0.80;;;20.60;99.90;;;;;;5042812;28;20558;-86
2022/06/20 03:51:25;;;;;;;2.55;1.27;;;;;;;;;;5038056;28;20250;-88
2022/06/20 03:53:56;;;;;;;1.85;0.98;;;;;;;;;;5047671;28;20223;-84
2022/06/20 03:56:25;;;;;;;1.52;1.00;;;;;;;;;;5036577;28;20574;-87
2022/06/20 03:58:55;;;;;;;2.20;1.20;;;;;;;;;;5048782;28;20643;-87
2022/06/20 04:01:25;;;;;;;2.03;1.20;;;;;;;;;;5042220;28;20295;-85
2022/06/20 04:03:55;;;;;;;1.75;1.10;;;;;;;;;;5044296;28;20203;-85
2022/06/20 04:06:27;;;;;;;2.17;0.90;;;;;;;;;;5047974;28;20234;-84
2022/06/20 04:11:44;;;;;;;3.03;1.08;;;;;;;;;;5042472;28;20245;-85
2022/06/20 04:14:13;;;;;;;3.67;0.90;;;;;;;;;;5041719;28;20215;-84
2022/06/20 04:16:45;;;;;;;2.90;1.10;;;;;;;;;;5041340;28;20211;-84
2022/06/20 04:19:24;;;;;;;1.77;1.00;;;;;;;;;;5047687;28;20195;-84
2022/06/20 04:21:54;;;;;;;2.30;1.20;;;;;;;;;;5043714;28;20710;-84
2022/06/20 04:24:23;;;;;;;1.67;1.45;;;;;;;;;;5046380;28;20199;-85
2022/06/20 04:26:53;;;;;;;2.47;1.00;;;;;;;;;;5050180;28;20248;-84
2022/06/20 04:29:23;;;;;;;2.65;1.25;;;;;;;;;;5045835;28;20298;-84
2022/06/20 04:31:53;;;;;;;1.40;0.90;;;;;;;;;;5048193;28;20618;-84
2022/06/20 04:34:22;;;;;;;3.05;1.35;;;;;;;;;;5048458;28;20219;-84
2022/06/20 04:36:52;;;;;;;2.08;1.05;;;;;;;;;;5042190;28;20210;-85
2022/06/20 04:39:23;;;;;;;1.38;0.90;;;;;;;;;;5042881;28;20198;-84
2022/06/20 04:41:52;;;;;;;2.92;1.15;;;;;;;;;;5051293;28;20218;-86
2022/06/20 04:44:22;;;;;;;1.58;1.00;;;;;;;;;;5047399;28;20184;-84
2022/06/20 04:46:52;;;;;;;1.30;0.90;;;;;;;;;;5045492;28;20621;-84
2022/06/20 04:49:21;;;;;;;2.85;1.10;;;;;;;;;;5046164;28;20210;-87
2022/06/20 04:51:50;;;;;;;1.90;0.90;;;;;;;;;;5047574;28;20257;-85
2022/06/20 04:54:20;;;;;;;1.17;0.88;;;;;;;;;;5045243;28;20203;-86
2022/06/20 04:56:47;;;;;;;1.48;1.10;;;;;;;;;;5051513;28;20203;-86
2022/06/20 04:59:18;;;;;;;1.38;1.00;;;;;;;;;;5038352;28;20204;-85
2022/06/20 05:01:45;;;;;;;2.05;0.90;;;;;;;;;;5034975;28;20295;-84
2022/06/20 05:04:20;;;;;;;1.48;1.10;;;;;;;;;;5034722;28;20217;-87
2022/06/20 05:06:48;;;;;;;1.15;1.05;;;;;;;;;;5042956;28;20269;-86
2022/06/20 05:09:17;;;;;;;3.38;1.00;;;;;;;;;;5040495;28;20210;-87
2022/06/20 05:11:47;;;;;;;2.22;1.00;;;;;;;;;;5048329;28;20194;-87
2022/06/20 05:14:17;;;;;;;2.63;1.38;;;;;;;;;;5038410;28;20247;-86
2022/06/20 05:16:47;;;;;;;2.88;1.10;;;;;;;;;;5037325;28;20195;-87
2022/06/20 05:19:16;;;;;;;1.67;1.17;;;;;;;;;;5048636;28;20724;-87
2022/06/20 05:21:46;;;;;;;2.25;1.08;;;;;;;;;;5041943;28;20207;-86
2022/06/20 05:24:16;;;;;;;2.50;1.20;;;;;;;;;;5031571;28;20245;-85
2022/06/20 05:26:44;;;;;;;2.88;1.10;;;;;;;;;;5045231;28;20654;-87
2022/06/20 05:29:14;;;;;;;1.65;1.00;;;;;;;;;;5038474;28;20203;-87
2022/06/20 05:31:43;;;;;;;2.25;0.90;;;;;;;;;;5034562;28;20199;-84
2022/06/20 05:34:14;;;;;;;1.85;1.15;;;;;;;;;;5048877;28;20214;-86
2022/06/20 05:36:46;;;;;;;2.47;1.00;;;;;;;;;;5042101;28;20211;-87
2022/06/20 05:39:17;;;;;;;2.13;1.20;;;;;;;;;;5039519;28;20201;-85
2022/06/20 05:41:44;;;;;;;3.80;1.20;;;;;;;;;;5046220;28;20220;-85
2022/06/20 05:44:12;;;;;;;3.28;1.00;;;;;;;;;;5041743;28;20195;-85
2022/06/20 05:46:42;;;;;;;2.25;1.90;;;;;;;;;;5045363;28;20203;-85
2022/06/20 05:49:11;;;;;;;5.75;1.38;;;;;;;;;;5046130;28;20221;-85
2022/06/20 05:51:40;;;;;;;3.30;1.20;;;;;;;;;;5046322;28;20203;-85
2022/06/20 05:54:11;;;;;;;1.65;1.00;;;;;;;;;;5047082;28;20226;-85
2022/06/20 05:56:42;;;;;;;3.67;1.30;;;;;;;;;;5036389;28;20199;-85
2022/06/20 05:59:31;;;;;;;2.13;1.42;;;;;;;;;;5044303;28;20195;-85
2022/06/20 06:02:01;;;;;;;1.60;1.15;;;;;;;;;;5039299;28;20199;-84
2022/06/20 06:04:32;;;;;;;2.50;1.20;;;;;;;;;;5049582;28;20222;-84
2022/06/20 06:07:02;;;;;;;1.80;1.50;;;;;;;;;;5038401;28;20196;-84
2022/06/20 06:09:43;;;;;;;1.98;1.17;;;;;;;;;;5040392;28;20204;-84
2022/06/20 06:12:14;;;;;;;2.25;1.10;;;;;;;;;;5039579;28;20226;-87
2022/06/20 06:14:42;;;;;;;2.67;1.10;;;;;;;;;;5047133;28;20242;-85
2022/06/20 06:17:12;;;;;;;1.80;0.90;;;;;;;;;;5049915;28;20631;-85
2022/06/20 06:19:41;;;;;;;2.53;1.02;;;;;;;;;;5053352;28;20689;-86
2022/06/20 06:22:12;;;;;;;2.78;1.00;;;;;;;;;;5043024;28;20571;-85
2022/06/20 06:24:40;;;;;;;2.55;1.30;;;;;;;;;;5049244;28;20251;-86
2022/06/20 06:27:11;;;;;;;2.00;1.10;;;;;;;;;;5050704;28;20206;-86
2022/06/20 06:29:42;;;;;;;1.42;1.00;;;;;;;;;;5039957;28;20656;-87
2022/06/20 06:32:13;;;;;;;1.88;1.25;;;;;;;;;;5039370;28;20219;-87
2022/06/20 06:34:42;;;;;;;2.55;1.20;;;;;;;;;;5040677;28;20226;-86
2022/06/20 06:37:10;;;;;;;2.45;1.63;;;;;;;;;;5043979;28;20195;-85
2022/06/20 06:39:42;;;;;;;3.92;1.30;;;;;;;;;;5043053;28;20207;-85
2022/06/20 06:42:14;;;;;;;6.53;1.75;;;;;;;;;;5038195;28;20290;-86
2022/06/20 06:44:44;;;;;;;2.83;1.38;;;;;;;;;;5053763;28;20195;-85
2022/06/20 06:47:17;;;;;;;2.25;1.20;;;;;;;;;;5042036;28;20199;-85
2022/06/20 06:49:45;;;;;;;3.72;1.70;;;;;;;;;;5050787;28;20566;-84
2022/06/20 06:52:15;;;;;;;3.80;1.25;;;;;;;;;;5051755;28;20198;-87
2022/06/20 06:54:49;;;;;;;4.20;1.77;;;;;;;;;;5048130;28;20272;-86
2022/06/20 06:57:19;;;;;;;5.10;1.38;;;;;;;;;;5052028;28;20203;-87
2022/06/20 06:59:49;;;;;;;7.10;1.60;;;;;;;;;;5045829;28;20195;-86
2022/06/20 07:02:17;;;;;;;2.75;1.40;;;;;;;;;;5034915;28;20210;-85
2022/06/20 07:04:48;;;;;;;3.58;1.50;;;;;;;;;;5047982;28;20203;-86
2022/06/20 07:07:18;;;;;;;4.25;2.10;;;;;;;;;;5037285;28;20291;-88
2022/06/20 07:09:46;;;;;;;3.80;1.88;;;;;;;;;;5038685;28;20199;-87
2022/06/20 07:12:15;;;;;;;4.90;1.50;;;;;;;;;;5042497;28;20203;-88
2022/06/20 07:14:44;;;;;;;2.03;1.30;;;;;;;;;;5046393;28;20310;-87
2022/06/20 07:17:15;;;;;;;3.70;1.10;;;;;;;;;;5046266;28;20199;-87
2022/06/20 07:19:44;;;;;;;1.80;1.20;;;;;;;;;;5050182;28;20199;-86
2022/06/20 07:22:14;;;;;;;2.17;1.10;;;;;;;;;;5043219;28;20207;-87
2022/06/20 07:24:42;;;;;;;4.43;1.50;;;;;;;;;;5044130;28;20201;-88
2022/06/20 07:27:13;;;;;;;4.72;1.35;;;;;;;;;;5043998;28;20226;-87
2022/06/20 07:29:43;;;;;;;2.05;1.35;;;;;;;;;;5042104;28;20308;-88
2022/06/20 07:32:11;;;;;;;3.65;1.20;;;;;;;;;;5040813;28;20195;-87
2022/06/20 07:34:43;;;;;;;3.90;1.58;;;;;;;;;;5044281;28;20219;-83
2022/06/20 07:37:12;;;;;;;2.88;1.50;;;;;;;;;;5042001;28;20710;-84
2022/06/20 07:39:43;;;;;;;1.95;1.25;;;;;;;;;;5040237;28;20200;-84
2022/06/20 07:42:14;;;;;;;6.75;1.30;;;;;;;;;;5049877;28;20293;-83
2022/06/20 07:44:43;;;;;;;1.95;0.90;;;;;;;;;;5048935;28;20253;-88
2022/06/20 07:47:13;;;;;;;1.75;1.10;;;;;;;;;;5036576;28;20228;-86
2022/06/20 07:49:44;;;;;;;1.35;0.90;;;;;;;;;;5042170;28;20202;-89
2022/06/20 07:52:13;;;;;;;2.08;1.15;;;;;;;;;;5046918;28;20195;-88
2022/06/20 07:54:43;;;;;;;2.47;1.10;;;;;;;;;;5046922;28;20237;-86
2022/06/20 07:57:13;;;;;;;2.38;0.98;;;;;;;;;;5046543;28;20256;-88
2022/06/20 07:59:44;;;;;;;2.15;1.02;;;;;;;;;;5040943;28;20302;-88
2022/06/20 08:02:15;;;;;;;1.70;0.90;;;;;;;;;;5041296;28;20196;-87
2022/06/20 08:04:46;;;;;;;6.13;1.33;;;;;;;;;;5050017;28;20246;-89
2022/06/20 08:07:15;;;;;;;2.03;1.05;;;;;;;;;;5037756;28;20207;-87
2022/06/20 08:09:45;;;;;;;2.65;1.10;;;;;;;;;;5039971;28;20205;-88
2022/06/20 08:12:16;;;;;;;3.10;1.13;;;;;;;;;;5043259;28;20713;-81
2022/06/20 08:14:46;;;;;;;1.63;1.10;;;;;;;;;;5038704;28;20621;-82
2022/06/20 08:17:13;;;;;;;2.55;1.10;;;;;;;;;;5045316;28;20201;-81
2022/06/20 08:19:42;;;;;;;2.20;1.20;;;;;;;;;;5043494;28;20742;-82
2022/06/20 08:22:13;;;;;;;2.20;1.10;;;;;;;;;;5042392;28;20662;-87
2022/06/20 08:24:44;;;;;;;3.45;1.67;;;;;;;;;;5048668;28;20192;-86
2022/06/20 08:27:12;;;;;;;2.80;1.20;;;;;;;;;;5044916;28;20195;-88
2022/06/20 08:29:42;;;;;;;3.58;1.00;;;;;;;;;;5041825;28;20218;-88
2022/06/20 08:32:17;;;;;;;2.85;1.50;;;;;;;;;;5041523;28;20868;-87
2022/06/20 08:34:46;;;;;;;2.50;1.00;;;;;;;;;;5035752;28;20202;-86
2022/06/20 08:37:20;;;;;;;1.25;0.90;;;;;;;;;;5040904;28;20278;-85
2022/06/20 08:39:50;;;;;;;2.78;1.30;;;;;;;;;;5048853;28;20665;-88
2022/06/20 08:42:28;;;;;;;3.83;1.42;;;;;;;;;;5044789;28;20234;-84
2022/06/20 08:45:05;;;;;;;2.20;1.20;;;;;;;;;;5039828;28;20188;-86
2022/06/20 08:47:57;;;;;;;1.83;0.90;;;;;;;;;;5036099;28;20260;-87
2022/06/20 08:50:39;;;;;;;1.85;0.90;;;;;;;;;;5037873;28;20203;-86
2022/06/20 08:53:24;;;;;;;2.35;1.10;;;;;;;;;;5032600;28;20208;-87
2022/06/20 08:56:07;;;;;;;1.17;1.00;;;;;;;;;;5044082;28;20221;-84
2022/06/20 08:58:40;;;;;;;2.15;0.98;;;;;;;;;;5039868;28;20203;-86
2022/06/20 09:01:11;;;;;;;1.50;1.40;;;;;;;;;;5040153;28;20662;-87
2022/06/20 09:03:50;;;;;;;1.60;1.00;;;;;;;;;;5042159;28;20615;-87
2022/06/20 09:06:32;;;;;;;1.73;1.10;;;;;;;;;;5041482;28;20198;-87
2022/06/20 09:09:14;;;;;;;1.45;0.98;;;;;;;;;;5044564;28;20200;-88
2022/06/20 09:11:51;;;;;;;2.00;1.00;;;;;;;;;;5043791;28;20292;-87
2022/06/20 09:14:29;;;;;;;1.80;1.50;;;;;;;;;;5044486;28;20732;-87
2022/06/20 09:17:01;;;;;;;2.17;1.77;;;;;;;;;;5036719;28;20716;-87
2022/06/20 09:19:55;;;;;;;2.45;1.13;;;;;;;;;;5052819;28;20440;-86
2022/06/20 09:22:30;;;;;;;3.25;1.10;;;;;;;;;;5041571;28;20662;-87
2022/06/20 09:25:03;;;;;;;2.42;1.33;;;;;;;;;;5051459;28;20629;-84
2022/06/20 09:27:41;;;;;;;3.15;1.05;;;;;;;;;;5053601;28;20200;-87
2022/06/20 09:30:11;;;;;;;1.40;0.93;;;;;;;;;;5044125;28;20227;-87
2022/06/20 09:32:45;;;;;;;1.40;1.00;;;;;;;;;;5050059;28;20669;-86
2022/06/20 09:35:18;;;;;;;1.92;1.02;;;;;;;;;;5049392;28;20226;-86
2022/06/20 09:38:01;;;;;;;1.10;0.70;;;;;;;;;;5044692;28;20256;-86
2022/06/20 09:40:33;;;;;;;1.75;0.90;;;;;;;;;;5052218;28;20211;-86
2022/06/20 09:43:05;;;;;;;2.03;0.90;;;;;;;;;;5047180;28;20722;-88
2022/06/20 09:45:37;;;;;;;2.38;1.08;;;;;;;;;;5043185;28;20204;-86
2022/06/20 09:48:10;;;;;;;1.70;1.00;;;;;;;;;;5037786;28;20512;-86
2022/06/20 09:50:43;;;;;;;1.70;1.00;;;;;;;;;;5050722;28;20199;-86
2022/06/20 09:53:14;;;;;;;1.60;1.15;;;;;;;;;;5050909;28;20212;-86
2022/06/20 09:55:45;;;;;;;1.83;1.38;;;;;;;;;;5043340;28;20277;-84
2022/06/20 09:58:17;;;;;;;4.40;1.13;;;;;;;;;;5049153;28;20194;-87
2022/06/20 10:00:49;;;;;;;1.58;0.90;;;;;;;;;;5047179;28;20555;-86
2022/06/20 10:03:20;;;;;;;1.40;0.90;;;;;;;;;;5050691;28;20247;-86
2022/06/20 10:05:51;;;;;;;0.93;0.80;;;;;;;;;;5052072;28;20246;-84
2022/06/20 10:08:25;;;;;;;2.05;0.90;;;;;;;;;;5047969;28;20252;-84
2022/06/20 10:10:55;;;;;;;1.63;0.95;;;;;;;;;;5046272;28;20562;-86
2022/06/20 10:13:27;;;;;;;2.00;1.00;;;;;;;;;;5045624;28;20670;-87
2022/06/20 10:16:00;;;;;;;1.42;0.90;;;;;;;;;;5043144;28;20685;-87
2022/06/20 10:18:30;;;;;;;3.67;1.13;;;;;;;;;;5043936;28;20339;-88
2022/06/20 10:21:02;;;;;;;7.07;1.00;;;;;;;;;;5042847;28;20211;-88
2022/06/20 10:23:40;;;;;;;1.65;0.82;;;;;;;;;;5036071;28;20211;-85
2022/06/20 10:26:15;;;;;;;1.67;0.80;;;;;;;;;;5043144;28;20596;-88
2022/06/20 10:28:46;;;;;;;1.60;0.98;;;;;;;;;;5035955;28;20203;-86
2022/06/20 10:31:17;;;;;;;1.17;0.90;;;;;;;;;;5043568;28;20531;-88
2022/06/20 10:33:50;;;;;;;1.25;0.93;;;;;;;;;;5049782;28;20605;-88
2022/06/20 10:36:21;;;;;;;1.60;0.90;;;;;;;;;;5044417;28;20301;-87
2022/06/20 10:38:53;;;;;;;1.75;0.90;;;;;;;;;;5048990;28;20212;-87
2022/06/20 10:41:22;;;;;;;1.52;1.05;;;;;;;;;;5047625;28;20666;-86
2022/06/20 10:43:57;;;;;;;1.58;1.00;;;;;;;;;;5037021;28;20214;-85
2022/06/20 10:46:26;;;;;;;1.30;1.00;;;;;;;;;;5041497;28;20194;-85
2022/06/20 10:49:20;;;;;;;2.97;1.10;;;;;;;;;;5043946;28;20668;-84
2022/06/20 10:51:52;;;;;;;2.67;1.10;;;;;;;;;;5016073;28;20677;-86
2022/06/20 10:54:24;;;;;;;1.67;1.25;;;;;;;;;;5040511;28;20251;-85
2022/06/20 10:56:55;;;;;;;1.52;1.00;;;;;;;;;;5028959;28;20221;-86
2022/06/20 10:59:31;;;;;;;1.33;0.90;;;;;;;;;;5033189;28;20673;-88
2022/06/20 11:02:06;;;;;;;1.50;0.98;;;;;;;;;;5041376;28;20542;-86
2022/06/20 11:04:41;;;;;;;1.60;0.90;;;;;;;;;;5043259;28;20205;-85
2022/06/20 11:07:20;;;;;;;1.25;0.90;;;;;;;;;;5048992;28;20200;-84
2022/06/20 11:09:53;;;;;;;1.23;1.00;;;;;;;;;;5045519;28;20228;-85
2022/06/20 11:12:25;;;;;;;1.27;0.85;;;;;;;;;;5034871;28;20276;-86
2022/06/20 11:14:57;;;;;;;1.70;0.93;;;;;;;;;;5040239;28;20608;-85
2022/06/20 11:17:28;;;;;;;2.20;1.37;;;;;;;;;;5044391;28;20783;-86
2022/06/20 11:20:01;;;;;;;1.63;1.17;;;;;;;;;;5049932;28;20460;-86
2022/06/20 11:22:36;;;;;;;1.75;1.05;;;;;;;;;;5038852;28;20315;-83
2022/06/20 11:25:07;;;;;;;1.20;0.88;;;;;;;;;;5043977;28;20212;-85
2022/06/20 11:27:45;;;;;;;1.30;1.20;;;;;;;;;;5045037;28;20640;-82
2022/06/20 11:30:18;;;;;;;2.40;1.65;;;;;;;;;;5037854;28;20684;-85
2022/06/20 11:32:54;;;;;;;1.52;1.17;;;;;;;;;;5045728;28;20197;-84
2022/06/20 11:35:27;;;;;;;1.77;1.20;;;;;;;;;;5041614;28;20212;-84
2022/06/20 11:38:04;;;;;;;2.80;1.13;;;;;;;;;;5036118;28;20218;-84
2022/06/20 11:40:36;;;;;;;2.80;1.05;;;;;;;;;;5038933;28;20957;-84
2022/06/20 11:43:21;;;;;;;2.08;1.35;;;;;;;;;;5046940;28;20223;-84
2022/06/20 11:45:59;;;;;;;1.50;1.05;;;;;;;;;;5031491;28;20203;-85
2022/06/20 11:48:34;;;;;;;1.00;0.80;;;;;;;;;;5046668;28;20264;-83
2022/06/20 11:51:03;;;;;;;1.30;1.00;;;;;;;;;;5045008;28;20239;-84
2022/06/20 11:53:41;;;;;;;1.45;0.90;;;;;;;;;;5041568;28;20254;-84
2022/06/20 11:56:15;;;;;;;2.55;1.30;;;;;;;;;;5034023;28;20246;-85
2022/06/20 11:58:57;;;;;;;1.20;1.00;;;;;;;;;;5039012;28;20621;-85
2022/06/20 12:01:27;;;;;;;4.05;1.50;;;;;;;;;;5038600;28;20514;-83
2022/06/20 12:03:57;;;;;;;2.90;1.25;;;;;;;;;;5048870;28;20458;-84
2022/06/20 12:06:26;;;;;;;2.95;1.30;;;;;;;;;;5047038;28;20635;-84
2022/06/20 12:08:56;;;;;;;1.77;0.93;;;;;;;;;;5042570;28;20567;-85
2022/06/20 12:11:42;;;;;;;1.90;1.00;;;;;;;;;;5042943;28;20202;-85
2022/06/20 12:14:16;;;;;;;1.53;1.20;;;;;;;;;;5031712;28;20959;-84
2022/06/20 12:16:48;;;;;;;1.80;1.00;;;;;;;;;;5044625;28;20496;-83
2022/06/20 12:24:54;;;;;;;1.70;1.13;;;;;;;;;;5032700;28;20456;-84
2022/06/20 12:27:21;;;;;;;1.55;1.13;;;;;;;;;;5048691;28;20637;-85
2022/06/20 12:29:49;;;;;;;1.73;1.10;;;;;;;;;;5044036;28;20207;-86
2022/06/20 12:32:19;;;;;;;3.15;1.20;;;;;;;;;;5048640;28;20453;-86
2022/06/20 12:34:50;;;;;;;2.33;1.50;;;;;;;;;;5047727;28;20225;-84
2022/06/20 12:37:22;;;;;;;2.88;1.63;;;;;;;;;;5036982;28;20689;-84
2022/06/20 12:39:51;;;;;;;3.17;1.00;;;;;;;;;;5040613;28;20211;-85
2022/06/20 12:42:20;;;;;;;1.87;1.33;;;;;;;;;;5043907;28;20222;-84
2022/06/20 12:44:54;;;;;;;1.67;1.20;;;;;;;;;;5045751;28;20467;-85
2022/06/20 12:47:39;;;;;;;1.80;1.10;;;;;;;;;;5035635;28;20222;-84
2022/06/20 12:50:16;;;;;;;2.20;1.50;;;;;;;;;;5024459;28;20461;-84
2022/06/20 12:52:47;;;;;;;2.60;1.17;;;;;;;;;;5037881;28;20997;-84
2022/06/20 12:55:29;;;;;;;1.40;1.30;;;;;;;;;;5037746;28;20883;-84
2022/06/20 12:58:04;;;;;;;1.80;1.40;;;;;;;;;;5036623;28;20747;-86
2022/06/20 13:00:35;;;;;;;3.63;1.87;;;;;;;;;;5042234;28;20563;-84
2022/06/20 13:03:13;;;;;;;1.92;1.50;;;;;;;;;;5047444;28;20441;-84
2022/06/20 13:05:49;;;;;;;1.70;1.30;;;;;;;;;;5043300;28;20194;-84
2022/06/20 13:08:40;;;;;;;3.47;1.60;;;;;;;;;;5035207;28;20456;-83
2022/06/20 13:11:12;;;;;;;1.80;1.30;;;;;;;;;;5030127;28;20203;-84
2022/06/20 13:13:54;;;;;;;2.60;1.57;;;;;;;;;;5033768;28;20552;-83
2022/06/20 13:16:23;;;;;;;2.55;1.50;;;;;;;;;;5040644;28;20490;-82
2022/06/20 13:19:14;;;;;;;1.57;0.87;;;;;;;;;;5047517;28;20822;-82
2022/06/20 13:21:45;;;;;;;2.87;1.47;;;;;;;;;;5037254;28;20471;-82
2022/06/20 13:24:16;;;;;;;1.87;1.07;;;;;;;;;;5042742;28;20538;-83
2022/06/20 13:26:49;;;;;;;1.30;1.13;;;;;;;;;;5042606;28;20629;-84
2022/06/20 13:29:22;;;;;;;2.43;1.67;;;;;;;;;;5041825;28;20958;-83
2022/06/20 13:31:52;;;;;;;1.13;1.00;;;;;;;;;;5050649;28;20448;-83
2022/06/20 13:34:21;;;;;;;2.85;1.40;;;;;;;;;;5048002;28;20205;-84
2022/06/20 13:36:54;;;;;;;1.20;0.90;;;;;;;;;;5034074;28;20226;-84
2022/06/20 13:39:24;;;;;;;1.90;1.40;;;;;;;;;;5031157;28;20209;-84
2022/06/20 13:41:53;;;;;;;7.03;2.20;;;;;;;;;;5046513;28;20241;-84
2022/06/20 13:44:30;;;;;;;2.58;1.83;;;;;;;;;;5040968;28;20202;-85
2022/06/20 13:47:02;;;;;;;2.00;1.30;;;;;;;;;;5045443;28;20577;-83
2022/06/20 13:49:32;;;;;;;2.97;1.40;;;;;;;;;;5035794;28;20285;-84
2022/06/20 13:52:04;;;;;;;1.40;1.20;;;;;;;;;;5038651;28;20203;-86
2022/06/20 13:54:35;;;;;;;4.03;1.77;;;;;;;;;;5035466;28;20450;-85
2022/06/20 13:57:05;;;;;;;2.13;1.42;;;;;;;;;;5040077;28;20488;-84
2022/06/20 13:59:40;;;;;;;1.50;1.13;;;;;;;;;;5037343;28;20239;-84
2022/06/20 14:02:22;;;;;;;1.20;1.10;;;;;;;;;;5045364;28;20199;-84
2022/06/20 14:04:49;;;;;;;3.13;1.25;;;;;;;;;;5035614;28;20210;-84
2022/06/20 14:07:22;;;;;;;1.33;1.00;;;;;;;;;;5040735;28;20203;-84
2022/06/20 14:09:53;;;;;;;2.22;1.05;;;;;;;;;;5048204;28;20206;-84
2022/06/20 14:12:23;;;;;;;2.55;1.40;;;;;;;;;;5045260;28;20205;-83
2022/06/20 14:14:52;;;;;;;1.60;1.35;;;;;;;;;;5046338;28;20207;-84
2022/06/20 14:17:21;;;;;;;2.63;1.27;;;;;;;;;;5037007;28;21725;-85
2022/06/20 14:19:49;;;;;;;1.40;1.30;;;;;;;;;;5044704;28;20216;-83
2022/06/20 14:22:20;;;;;;;3.53;1.38;;;;;;;;;;5044696;28;20701;-85
2022/06/20 14:24:49;;;;;;;1.20;1.10;;;;;;;;;;5034627;28;20215;-81
2022/06/20 14:27:17;;;;;;;2.70;1.63;;;;;;;;;;5045032;28;20485;-85
2022/06/20 14:29:48;;;;;;;2.65;1.10;;;;;;;;;;5044894;28;20615;-83
2022/06/20 14:32:18;;;;;;;1.23;1.02;;;;;;;;;;5037951;28;20637;-83
2022/06/20 14:37:32;;;;;;;2.50;1.27;;;;;;;;;;5038543;28;20230;-83
2022/06/20 14:40:00;;;;;;;2.60;1.48;;;;;;;;;;5042399;28;20543;-85
2022/06/20 14:42:34;;;;;;;1.83;1.30;;;;;;;;;;5048824;28;20236;-84
2022/06/20 14:45:02;;;;;;;1.55;1.00;;;;;;;;;;5045592;28;20216;-83
2022/06/20 14:47:36;;;;;;;2.55;1.00;;;;;;;;;;5047341;28;20194;-83
2022/06/20 14:50:10;;;;;;;1.90;1.20;;;;;;;;;;5040681;28;20195;-85
2022/06/20 14:52:44;;;;;;;2.77;1.43;;;;;;;;;;5040388;28;20457;-84
2022/06/20 14:55:17;;;;;;;1.50;1.25;;;;;;;;;;5044186;28;20848;-83
2022/06/20 14:57:47;;;;;;;3.55;1.15;;;;;;;;;;5051740;28;20684;-82
2022/06/20 15:00:20;;;;;;;1.40;1.20;;;;;;;;;;5042958;28;20209;-83
2022/06/20 15:02:50;;;;;;;3.10;1.08;;;;;;;;;;5040189;28;21046;-84
2022/06/20 15:05:22;;;;;;;2.03;1.30;;;;;;;;;;5033961;28;20187;-83
2022/06/20 15:07:52;;;;;;;2.70;1.20;;;;;;;;;;5049875;28;20488;-83
2022/06/20 15:10:23;;;;;;;3.93;1.00;;;;;;;;;;5031697;28;20484;-84
2022/06/20 15:12:52;;;;;;;2.25;1.70;;;;;;;;;;5043257;28;20960;-85
2022/06/20 15:15:25;;;;;;;1.60;1.40;;;;;;;;;;5047272;28;20197;-84
2022/06/20 15:17:59;;;;;;;1.50;1.07;;;;;;;;;;5046004;28;20504;-84
2022/06/20 15:20:28;;;;;;;2.27;1.10;;;;;;;;;;5040944;28;20477;-87